createdAt,value
2019-01-10T00:04:47.145Z,78.40
2019-01-10T00:09:48.688Z,78.25
2019-01-10T00:14:50.272Z,78.41
2019-01-10T00:19:53.644Z,78.80
2019-01-10T00:24:55.210Z,79.15
2019-01-10T00:29:56.780Z,79.49
2019-01-10T00:34:58.358Z,79.26
2019-01-10T00:39:59.842Z,79.53
2019-01-10T00:45:01.404Z,79.34
2019-01-10T00:50:04.039Z,79.16
2019-01-10T00:55:05.947Z,79.12
2019-01-10T01:00:16.186Z,79.05
2019-01-10T01:05:17.745Z,79.34
2019-01-10T01:10:21.603Z,79.63
2019-01-10T01:15:23.140Z,79.67
2019-01-10T01:20:24.751Z,79.63
2019-01-10T01:25:26.666Z,79.82
2019-01-10T01:30:28.597Z,79.76
2019-01-10T01:35:31.934Z,80.29
2019-01-10T01:40:33.888Z,80.28
2019-01-10T01:45:35.470Z,80.68
2019-01-10T01:50:37.020Z,80.87
2019-01-10T01:55:38.846Z,80.85
2019-01-10T02:00:40.392Z,81.04
2019-01-10T02:05:41.932Z,81.02
2019-01-10T02:10:43.506Z,81.10
2019-01-10T02:15:45.000Z,81.44
2019-01-10T02:20:46.567Z,81.33
2019-01-10T02:25:48.548Z,81.74
2019-01-10T02:30:50.117Z,81.65
2019-01-10T02:35:51.689Z,81.54
2019-01-10T02:40:53.266Z,81.25
2019-01-10T02:45:54.806Z,81.39
2019-01-10T02:50:56.321Z,81.17
2019-01-10T02:55:58.323Z,81.24
2019-01-10T03:00:59.902Z,81.06
2019-01-10T03:06:01.432Z,81.15
2019-01-10T03:11:02.982Z,80.84
2019-01-10T03:16:04.507Z,80.92
2019-01-10T03:21:06.045Z,80.85
2019-01-10T03:26:07.854Z,80.73
2019-01-10T03:31:09.720Z,80.74
2019-01-10T03:36:11.267Z,80.83
2019-01-10T03:41:13.168Z,80.65
2019-01-10T03:46:14.704Z,80.61
2019-01-10T03:51:16.575Z,80.58
2019-01-10T03:56:18.118Z,80.53
2019-01-10T04:01:19.663Z,80.40
2019-01-10T04:06:21.172Z,80.31
2019-01-10T04:11:22.743Z,80.38
2019-01-10T04:16:24.251Z,80.39
2019-01-10T04:21:25.807Z,80.27
2019-01-10T04:26:27.301Z,80.24
2019-01-10T04:31:28.873Z,80.20
2019-01-10T04:36:30.401Z,80.25
2019-01-10T04:41:31.997Z,80.29
2019-01-10T04:46:33.500Z,80.40
2019-01-10T04:51:35.042Z,80.43
2019-01-10T04:56:36.616Z,80.25
2019-01-10T05:01:38.142Z,80.08
2019-01-10T05:06:41.739Z,80.08
2019-01-10T05:11:43.248Z,80.04
2019-01-10T05:16:44.801Z,79.99
2019-01-10T05:21:46.455Z,80.14
2019-01-10T05:26:48.409Z,80.52
2019-01-10T05:31:50.007Z,80.31
2019-01-10T05:36:51.562Z,80.29
2019-01-10T05:41:53.471Z,80.23
2019-01-10T05:46:55.046Z,80.11
2019-01-10T05:51:56.634Z,80.09
2019-01-10T05:56:58.191Z,80.31
2019-01-10T06:01:59.739Z,80.05
2019-01-10T06:07:01.293Z,80.10
2019-01-10T06:12:03.656Z,80.04
2019-01-10T06:17:05.223Z,80.06
2019-01-10T06:22:07.085Z,80.02
2019-01-10T06:27:08.668Z,80.04
2019-01-10T06:32:10.365Z,79.99
2019-01-10T06:37:12.718Z,79.95
2019-01-10T06:42:14.601Z,79.83
2019-01-10T06:47:16.591Z,79.73
2019-01-10T06:52:18.466Z,79.72
2019-01-10T06:57:20.053Z,79.62
2019-01-10T07:02:21.631Z,79.50
2019-01-10T07:07:23.397Z,79.46
2019-01-10T07:12:24.948Z,79.36
2019-01-10T07:17:26.548Z,79.25
2019-01-10T07:22:28.293Z,79.13
2019-01-10T07:27:29.819Z,79.08
2019-01-10T07:32:31.526Z,78.95
2019-01-10T07:37:33.114Z,78.85
2019-01-10T07:42:34.661Z,78.73
2019-01-10T07:47:36.635Z,78.65
2019-01-10T07:52:38.194Z,78.62
2019-01-10T07:57:40.101Z,78.53
2019-01-10T08:02:41.881Z,78.57
2019-01-10T08:07:43.481Z,78.68
2019-01-10T08:12:45.001Z,78.76
2019-01-10T08:17:46.535Z,78.61
2019-01-10T08:22:48.571Z,78.61
2019-01-10T08:27:50.496Z,78.49
2019-01-10T08:32:52.061Z,78.43
2019-01-10T08:37:53.580Z,78.49
2019-01-10T08:42:55.541Z,78.33
2019-01-10T08:47:57.127Z,78.27
2019-01-10T08:52:58.718Z,78.09
2019-01-10T08:58:00.273Z,78.03
2019-01-10T09:03:01.778Z,77.93
2019-01-10T09:08:03.415Z,77.90
2019-01-10T09:13:04.986Z,77.79
2019-01-10T09:18:06.589Z,77.55
2019-01-10T09:23:08.220Z,77.45
2019-01-10T09:28:09.921Z,77.47
2019-01-10T09:33:11.442Z,77.17
2019-01-10T09:38:12.982Z,77.06
2019-01-10T09:43:14.572Z,76.88
2019-01-10T09:48:16.126Z,76.59
2019-01-10T09:53:17.683Z,76.46
2019-01-10T09:58:19.530Z,76.31
2019-01-10T10:03:21.103Z,76.35
2019-01-10T10:08:22.768Z,75.85
2019-01-10T10:13:24.355Z,75.46
2019-01-10T10:18:26.020Z,75.60
2019-01-10T10:23:27.588Z,75.15
2019-01-10T10:28:29.153Z,75.23
2019-01-10T10:33:30.754Z,74.95
2019-01-10T10:38:32.318Z,75.07
2019-01-10T10:43:34.503Z,74.62
2019-01-10T10:48:36.108Z,74.77
2019-01-10T10:53:37.727Z,74.25
2019-01-10T10:58:39.271Z,74.13
2019-01-10T11:03:40.858Z,73.83
2019-01-10T11:08:44.564Z,73.62
2019-01-10T11:13:45.899Z,73.54
2019-01-10T11:18:47.428Z,73.34
2019-01-10T11:23:48.983Z,73.27
2019-01-10T11:28:50.524Z,73.05
2019-01-10T11:33:52.373Z,72.62
2019-01-10T11:38:53.963Z,72.02
2019-01-10T11:43:55.521Z,71.63
2019-01-10T11:48:57.091Z,71.26
2019-01-10T11:53:59.743Z,70.94
2019-01-10T11:59:01.287Z,71.08
2019-01-10T12:04:02.835Z,70.95
2019-01-10T12:09:05.619Z,70.72
2019-01-10T12:14:07.267Z,70.64
2019-01-10T12:19:08.772Z,70.65
2019-01-10T12:24:10.354Z,70.78
2019-01-10T12:29:11.929Z,70.97
2019-01-10T12:34:13.593Z,70.84
2019-01-10T12:39:15.531Z,70.58
2019-01-10T12:44:17.128Z,68.52
2019-01-10T12:49:18.696Z,68.56
2019-01-10T12:54:21.875Z,67.49
2019-01-10T12:59:23.715Z,67.93
2019-01-10T13:04:25.590Z,68.17
2019-01-10T13:09:28.350Z,66.67
2019-01-10T13:14:29.933Z,68.06
2019-01-10T13:19:33.215Z,67.29
2019-01-10T13:24:34.767Z,67.44
2019-01-10T13:29:36.612Z,67.36
2019-01-10T13:34:38.160Z,67.69
2019-01-10T13:39:39.837Z,67.38
2019-01-10T13:44:41.376Z,66.95
2019-01-10T13:49:42.999Z,67.38
2019-01-10T13:54:45.154Z,67.83
2019-01-10T13:59:46.657Z,67.64
2019-01-10T14:04:48.239Z,67.25
2019-01-10T14:09:49.821Z,67.23
2019-01-10T14:14:51.355Z,67.62
2019-01-10T14:19:52.879Z,68.09
2019-01-10T14:24:54.872Z,67.96
2019-01-10T14:29:56.392Z,68.17
2019-01-10T14:34:58.043Z,68.64
2019-01-10T14:39:59.631Z,68.69
2019-01-10T14:45:01.206Z,68.95
2019-01-10T14:50:03.795Z,69.21
2019-01-10T14:55:07.098Z,69.52
2019-01-10T15:00:12.365Z,69.73
2019-01-10T15:05:13.902Z,70.07
2019-01-10T15:10:15.454Z,70.30
2019-01-10T15:15:18.739Z,70.60
2019-01-10T15:20:28.440Z,70.82
2019-01-10T15:25:30.002Z,70.97
2019-01-10T15:30:31.567Z,71.20
2019-01-10T15:35:33.523Z,71.38
2019-01-10T15:40:35.049Z,71.74
2019-01-10T15:45:36.898Z,72.12
2019-01-10T15:50:38.435Z,72.51
2019-01-10T15:55:40.354Z,72.69
2019-01-10T16:00:41.892Z,73.03
2019-01-10T16:05:43.810Z,73.39
2019-01-10T16:10:45.708Z,74.60
2019-01-10T16:15:47.614Z,74.43
2019-01-10T16:20:49.186Z,74.45
2019-01-10T16:25:50.750Z,74.46
2019-01-10T16:30:52.279Z,74.54
2019-01-10T16:35:53.936Z,74.61
2019-01-10T16:40:55.634Z,74.61
2019-01-10T16:45:57.225Z,74.72
2019-01-10T16:51:01.209Z,74.69
2019-01-10T16:56:02.776Z,74.55
2019-01-10T17:01:04.416Z,74.42
2019-01-10T17:06:06.023Z,74.43
2019-01-10T17:11:07.656Z,74.37
2019-01-10T17:16:09.289Z,74.38
2019-01-10T17:21:11.092Z,74.29
2019-01-10T17:26:12.632Z,74.25
2019-01-10T17:31:14.257Z,74.08
2019-01-10T17:36:18.494Z,74.04
2019-01-10T17:41:19.983Z,74.01
2019-01-10T17:46:21.889Z,74.22
2019-01-10T17:51:23.789Z,74.03
2019-01-10T17:56:25.427Z,74.37
2019-01-10T18:01:27.043Z,74.33
2019-01-10T18:06:28.601Z,74.52
2019-01-10T18:11:30.193Z,74.56
2019-01-10T18:16:31.766Z,74.80
2019-01-10T18:21:33.338Z,74.78
2019-01-10T18:26:35.663Z,75.04
2019-01-10T18:31:37.334Z,75.12
2019-01-10T18:36:38.988Z,75.33
2019-01-10T18:41:40.688Z,75.67
2019-01-10T18:46:42.228Z,75.88
2019-01-10T18:51:43.870Z,76.18
2019-01-10T18:56:45.980Z,76.26
2019-01-10T19:01:47.631Z,76.39
2019-01-10T19:06:49.181Z,76.52
2019-01-10T19:11:50.828Z,76.53
2019-01-10T19:16:52.385Z,76.60
2019-01-10T19:21:54.259Z,76.83
2019-01-10T19:26:55.904Z,76.80
2019-01-10T19:31:57.564Z,76.94
2019-01-10T19:36:59.145Z,77.09
2019-01-10T19:42:01.467Z,77.37
2019-01-10T19:47:02.995Z,77.61
2019-01-10T19:52:05.063Z,77.89
2019-01-10T19:57:06.789Z,77.92
2019-01-10T20:02:08.634Z,78.10
2019-01-10T20:07:10.353Z,78.25
2019-01-10T20:12:11.952Z,78.36
2019-01-10T20:17:13.516Z,78.48
2019-01-10T20:22:15.422Z,78.64
2019-01-10T20:27:16.989Z,78.69
2019-01-10T20:32:18.860Z,78.91
2019-01-10T20:37:20.623Z,79.06
2019-01-10T20:42:22.199Z,79.09
2019-01-10T20:47:23.809Z,79.03
2019-01-10T20:52:25.468Z,79.20
2019-01-10T20:57:29.071Z,79.21
2019-01-10T21:02:31.699Z,79.29
2019-01-10T21:07:33.345Z,79.41
2019-01-10T21:12:36.073Z,79.56
2019-01-10T21:17:37.805Z,79.40
2019-01-10T21:22:39.446Z,79.45
2019-01-10T21:27:41.013Z,79.66
2019-01-10T21:32:42.669Z,79.59
2019-01-10T21:37:44.284Z,79.64
2019-01-10T21:42:45.836Z,79.69
2019-01-10T21:47:47.437Z,79.78
2019-01-10T21:52:48.974Z,79.90
2019-01-10T21:57:50.598Z,79.90
2019-01-10T22:02:52.154Z,79.94
2019-01-10T22:07:53.731Z,80.00
2019-01-10T22:12:56.019Z,80.06
2019-01-10T22:17:57.852Z,80.18
2019-01-10T22:22:59.420Z,80.21
2019-01-10T22:28:00.953Z,80.29
2019-01-10T22:33:02.535Z,80.26
2019-01-10T22:38:04.081Z,80.24
2019-01-10T22:43:05.607Z,80.31
2019-01-10T22:48:07.159Z,80.35
2019-01-10T22:53:08.797Z,80.25
2019-01-10T22:58:10.729Z,80.35
2019-01-10T23:03:12.548Z,80.60
2019-01-10T23:08:14.136Z,80.38
2019-01-10T23:13:15.697Z,80.32
2019-01-10T23:18:17.231Z,80.37
2019-01-10T23:23:18.773Z,80.58
2019-01-10T23:28:20.531Z,80.51
2019-01-10T23:33:22.093Z,80.54
2019-01-10T23:38:23.993Z,80.61
2019-01-10T23:43:26.754Z,80.53
2019-01-10T23:48:28.570Z,80.65
2019-01-10T23:53:31.283Z,80.72
2019-01-10T23:58:32.839Z,80.87
